Time;durP1;ratioP1;P1;durP2;ratioP2;P2;SDS_P1;SDS_P2;PMS_P1;PMS_P2;Temp;Humidity;BMP_temperature;BMP_pressure;BME280_temperature;BME280_humidity;BME280_pressure;Samples;Min_cycle;Max_cycle;Signal;HPM_P1;HPM_P2
2021/03/05 00:00:10;;;;;;;3.50;2.00;;;10.20;74.60;;;;;;5123420;27;20573;-47
2021/03/05 00:02:36;;;;;;;2.95;1.88;;;10.20;74.60;;;;;;5124091;28;20490;-45
2021/03/05 00:05:03;;;;;;;2.97;2.20;;;10.20;74.70;;;;;;5123112;28;20035;-45
2021/03/05 00:07:28;;;;;;;2.97;1.50;;;10.20;74.70;;;;;;5124930;27;20073;-43
2021/03/05 00:09:54;;;;;;;1.65;1.40;;;10.20;74.70;;;;;;5122751;28;20484;-40
2021/03/05 00:12:20;;;;;;;3.15;2.10;;;10.20;74.70;;;;;;5123807;28;20043;-46
2021/03/05 00:14:46;;;;;;;3.35;2.22;;;10.20;74.70;;;;;;5123725;28;20039;-41
2021/03/05 00:17:12;;;;;;;4.03;1.73;;;10.10;74.70;;;;;;5122956;27;20482;-43
2021/03/05 00:19:38;;;;;;;2.80;1.98;;;10.20;75.30;;;;;;5123043;28;20050;-43
2021/03/05 00:22:05;;;;;;;4.18;1.90;;;10.20;74.70;;;;;;5123228;28;20391;-43
2021/03/05 00:24:31;;;;;;;3.03;1.90;;;10.10;74.60;;;;;;5124065;28;20040;-42
2021/03/05 00:26:57;;;;;;;2.85;1.80;;;10.20;74.70;;;;;;5123082;27;20051;-46
2021/03/05 00:29:23;;;;;;;3.30;1.70;;;10.10;74.70;;;;;;5123458;28;20047;-42
2021/03/05 00:31:49;;;;;;;3.38;1.60;;;10.10;74.70;;;;;;5123618;28;20163;-46
2021/03/05 00:34:15;;;;;;;2.38;1.42;;;10.20;74.70;;;;;;5122446;27;20047;-45
2021/03/05 00:36:41;;;;;;;2.78;1.58;;;10.10;74.70;;;;;;5123902;28;20047;-44
2021/03/05 00:39:07;;;;;;;1.65;1.55;;;10.10;74.70;;;;;;5123772;28;20449;-41
2021/03/05 00:41:33;;;;;;;2.55;1.55;;;10.10;74.70;;;;;;5124481;28;20043;-45
2021/03/05 00:43:59;;;;;;;1.98;1.33;;;10.10;74.70;;;;;;5099335;27;565726;-47
2021/03/05 00:46:24;;;;;;;2.22;1.48;;;10.20;74.70;;;;;;5124125;27;20376;-43
2021/03/05 00:48:50;;;;;;;3.90;1.60;;;10.10;74.70;;;;;;5123562;27;20046;-43
2021/03/05 00:51:16;;;;;;;3.88;1.40;;;10.10;74.70;;;;;;5122168;27;20035;-46
2021/03/05 00:53:42;;;;;;;2.88;1.50;;;10.10;74.70;;;;;;5124409;27;20040;-44
2021/03/05 00:56:07;;;;;;;2.78;1.73;;;10.10;74.70;;;;;;5123153;27;20050;-43
2021/03/05 00:58:33;;;;;;;3.63;1.90;;;10.10;74.70;;;;;;5122007;27;20051;-42
2021/03/05 01:00:59;;;;;;;3.33;1.90;;;10.10;74.70;;;;;;5122555;27;20126;-42
2021/03/05 01:03:24;;;;;;;2.33;1.20;;;10.10;74.70;;;;;;5123456;27;20043;-42
2021/03/05 01:05:50;;;;;;;2.15;1.50;;;10.10;74.70;;;;;;5122650;27;20379;-43
2021/03/05 01:08:16;;;;;;;1.77;1.40;;;10.10;74.70;;;;;;5124340;27;20046;-44
2021/03/05 01:10:42;;;;;;;2.10;1.38;;;10.10;74.70;;;;;;5123784;27;20047;-44
2021/03/05 01:13:08;;;;;;;3.92;1.70;;;10.10;74.80;;;;;;5123352;27;20052;-46
2021/03/05 01:15:34;;;;;;;3.00;1.98;;;10.10;74.70;;;;;;5123175;27;20130;-46
2021/03/05 01:18:00;;;;;;;3.28;1.70;;;10.10;74.80;;;;;;5123860;28;20141;-43
2021/03/05 01:20:27;;;;;;;3.60;2.08;;;10.10;74.70;;;;;;5121961;28;20043;-41
2021/03/05 01:22:54;;;;;;;3.28;1.85;;;10.10;74.80;;;;;;5125601;28;20403;-43
2021/03/05 01:25:25;;;;;;;2.47;1.38;;;10.10;74.80;;;;;;5122096;28;20559;-43
2021/03/05 01:27:51;;;;;;;2.25;1.80;;;10.10;74.80;;;;;;5123551;28;20043;-44
2021/03/05 01:30:18;;;;;;;3.72;2.17;;;10.10;74.80;;;;;;5123020;27;20043;-46
2021/03/05 01:32:45;;;;;;;1.60;1.40;;;10.10;74.80;;;;;;5122216;27;20154;-47
2021/03/05 01:35:17;;;;;;;3.15;2.13;;;10.10;74.80;;;;;;5127137;27;20391;-43
2021/03/05 01:37:43;;;;;;;2.83;1.92;;;10.10;74.80;;;;;;5127847;27;20039;-41
2021/03/05 01:40:13;;;;;;;2.55;1.75;;;10.10;74.80;;;;;;5128099;27;20040;-41
2021/03/05 01:42:39;;;;;;;1.75;1.40;;;10.10;74.80;;;;;;5123025;27;20031;-41
2021/03/05 01:45:14;;;;;;;3.22;1.92;;;10.10;74.80;;;;;;5108804;28;20116;-43
2021/03/05 01:47:41;;;;;;;4.83;1.97;;;10.10;74.80;;;;;;5106576;28;20548;-41
2021/03/05 01:50:16;;;;;;;1.95;1.60;;;10.10;74.80;;;;;;5106581;28;20040;-43
2021/03/05 01:53:09;;;;;;;2.45;1.50;;;10.10;74.80;;;;;;5106097;28;20404;-43
2021/03/05 01:55:34;;;;;;;1.75;1.30;;;10.10;74.80;;;;;;5107402;28;20062;-41
2021/03/05 01:58:02;;;;;;;1.88;1.23;;;10.10;74.80;;;;;;5107217;28;20403;-42
2021/03/05 02:00:36;;;;;;;2.30;1.58;;;10.10;74.80;;;;;;5106985;28;20456;-42
2021/03/05 02:03:02;;;;;;;2.60;1.40;;;10.10;74.80;;;;;;5105122;28;20048;-41
2021/03/05 02:05:28;;;;;;;1.73;1.40;;;10.10;74.80;;;;;;5106325;28;20096;-42
2021/03/05 02:07:53;;;;;;;2.63;1.75;;;10.10;74.80;;;;;;5104714;28;20052;-43
2021/03/05 02:10:20;;;;;;;1.58;1.45;;;10.10;74.80;;;;;;5107320;28;20039;-42
2021/03/05 02:12:46;;;;;;;1.70;1.35;;;10.10;74.80;;;;;;5106488;28;20046;-43
2021/03/05 02:15:12;;;;;;;2.38;1.40;;;10.10;74.80;;;;;;5106760;28;20044;-42
2021/03/05 02:18:09;;;;;;;2.47;1.20;;;10.10;74.80;;;;;;5104151;28;20503;-42
2021/03/05 02:20:57;;;;;;;1.80;1.30;;;10.10;74.80;;;;;;5106636;28;20496;-41
2021/03/05 02:23:54;;;;;;;2.10;1.45;;;10.10;74.80;;;;;;5107066;28;20088;-40
2021/03/05 02:26:38;;;;;;;1.90;1.20;;;10.10;74.80;;;;;;5104858;28;20048;-43
2021/03/05 02:29:42;;;;;;;2.13;1.42;;;10.00;74.80;;;;;;5106884;28;20047;-42
2021/03/05 02:32:18;;;;;;;1.48;1.38;;;10.00;74.70;;;;;;5105386;28;20488;-42
2021/03/05 02:34:46;;;;;;;;;;;10.00;74.70;;;;;;5105699;28;20047;-42
2021/03/05 02:37:12;;;;;;;1.55;1.20;;;10.00;74.80;;;;;;5105395;28;19924;-43
2021/03/05 02:39:51;;;;;;;3.03;1.20;;;10.00;74.80;;;;;;5105207;28;20082;-42
2021/03/05 02:42:30;;;;;;;2.08;1.25;;;10.00;74.70;;;;;;5106950;28;20130;-44
2021/03/05 02:45:03;;;;;;;1.75;1.17;;;10.00;74.70;;;;;;5126924;27;20505;-43
2021/03/05 02:47:31;;;;;;;3.53;1.70;;;10.00;74.70;;;;;;5125280;27;20055;-42
2021/03/05 02:49:57;;;;;;;2.13;1.25;;;10.00;74.80;;;;;;5126523;27;20059;-42
2021/03/05 02:52:25;;;;;;;2.50;1.30;;;10.00;74.80;;;;;;5126682;27;20070;-42
2021/03/05 02:54:58;;;;;;;1.88;0.93;;;10.00;74.70;;;;;;5126459;27;20440;-43
2021/03/05 02:57:34;;;;;;;2.38;1.27;;;10.00;74.70;;;;;;5125814;27;20043;-42
2021/03/05 03:00:02;;;;;;;;;;;10.00;74.70;;;;;;5125933;27;20100;-43
2021/03/05 03:02:29;;;;;;;4.03;1.27;;;10.00;74.80;;;;;;5125773;27;20018;-43
2021/03/05 03:04:58;;;;;;;2.30;1.13;;;10.00;74.80;;;;;;5126527;27;20043;-44
2021/03/05 03:07:25;;;;;;;2.20;1.35;;;10.00;74.80;;;;;;5125909;27;20047;-44
2021/03/05 03:09:51;;;;;;;2.13;1.30;;;10.00;74.80;;;;;;5126937;27;20039;-41
2021/03/05 03:12:18;;;;;;;2.10;1.20;;;10.00;74.80;;;;;;5122992;27;20134;-41
2021/03/05 03:14:46;;;;;;;2.90;1.23;;;10.00;74.80;;;;;;5126243;27;20043;-43
2021/03/05 03:17:14;;;;;;;1.88;1.05;;;10.00;74.80;;;;;;5127114;27;20050;-43
2021/03/05 03:19:45;;;;;;;3.70;1.27;;;10.00;74.80;;;;;;5123817;27;20044;-42
2021/03/05 03:22:11;;;;;;;2.60;1.10;;;10.00;74.80;;;;;;5125707;27;20048;-43
2021/03/05 03:24:37;;;;;;;2.42;1.35;;;10.00;74.80;;;;;;5124152;27;20072;-43
2021/03/05 03:27:03;;;;;;;2.20;1.25;;;10.00;74.80;;;;;;5126254;27;20043;-42
2021/03/05 03:29:29;;;;;;;2.15;1.00;;;10.00;74.80;;;;;;5125023;27;20040;-43
2021/03/05 03:31:55;;;;;;;2.47;1.10;;;10.00;74.80;;;;;;5126048;27;20053;-42
2021/03/05 03:34:21;;;;;;;3.25;1.20;;;10.00;74.80;;;;;;5125967;27;20104;-45
2021/03/05 03:36:51;;;;;;;1.52;1.13;;;10.00;74.80;;;;;;5125550;27;20130;-43
2021/03/05 03:39:17;;;;;;;1.20;0.90;;;10.00;74.80;;;;;;5126292;27;20562;-43
2021/03/05 03:41:44;;;;;;;0.80;0.80;;;10.00;74.80;;;;;;5124709;27;20040;-43
2021/03/05 03:44:11;;;;;;;1.30;1.00;;;10.00;74.80;;;;;;5125183;27;20047;-45
2021/03/05 03:46:47;;;;;;;1.70;1.13;;;10.00;74.80;;;;;;5125856;27;20054;-43
2021/03/05 03:49:18;;;;;;;1.17;0.95;;;10.00;74.80;;;;;;5126046;27;20043;-42
2021/03/05 03:51:52;;;;;;;1.15;0.80;;;10.00;74.80;;;;;;5124383;27;20118;-45
2021/03/05 03:54:20;;;;;;;1.38;1.08;;;10.00;74.70;;;;;;5125659;27;20042;-44
2021/03/05 03:56:47;;;;;;;2.15;1.02;;;10.00;74.80;;;;;;5122499;27;20039;-47
2021/03/05 03:59:15;;;;;;;2.78;1.20;;;10.00;74.80;;;;;;5125434;27;20107;-44
2021/03/05 04:01:46;;;;;;;2.10;1.25;;;10.00;74.70;;;;;;5125026;27;20505;-44
2021/03/05 04:04:14;;;;;;;1.60;0.90;;;10.00;74.70;;;;;;5125254;27;20040;-46
2021/03/05 04:06:44;;;;;;;1.25;0.70;;;10.00;74.70;;;;;;5123358;27;20039;-47
2021/03/05 04:09:11;;;;;;;1.33;0.98;;;10.00;74.70;;;;;;5124670;27;20066;-46
2021/03/05 04:11:39;;;;;;;1.15;0.82;;;10.00;74.70;;;;;;5124756;27;20394;-43
2021/03/05 04:14:07;;;;;;;1.00;0.90;;;10.00;74.70;;;;;;5125182;27;20084;-44
2021/03/05 04:16:33;;;;;;;1.20;1.02;;;9.90;74.70;;;;;;5122130;27;20396;-44
2021/03/05 04:18:58;;;;;;;0.95;0.75;;;10.00;74.70;;;;;;5125552;27;20046;-43
2021/03/05 04:21:42;;;;;;;1.13;1.02;;;10.00;74.70;;;;;;5123634;27;20051;-46
2021/03/05 04:24:08;;;;;;;2.15;1.00;;;10.00;75.40;;;;;;5125032;27;20067;-43
2021/03/05 04:26:34;;;;;;;1.92;1.00;;;9.90;74.70;;;;;;5123045;27;20118;-43
2021/03/05 04:29:00;;;;;;;1.13;0.80;;;9.90;74.70;;;;;;5122743;27;20523;-44
2021/03/05 04:31:25;;;;;;;1.50;1.00;;;10.00;74.70;;;;;;5125756;27;20038;-46
2021/03/05 04:33:51;;;;;;;1.73;1.08;;;9.90;74.70;;;;;;5124790;27;20067;-42
2021/03/05 04:36:17;;;;;;;1.35;0.90;;;9.90;74.70;;;;;;5122657;27;20470;-43
2021/03/05 04:38:43;;;;;;;1.38;1.10;;;9.90;74.70;;;;;;5122960;27;20039;-42
2021/03/05 04:41:09;;;;;;;0.95;0.70;;;9.90;74.70;;;;;;5125175;27;20843;-43
2021/03/05 04:43:34;;;;;;;1.05;0.80;;;9.90;74.70;;;;;;5123209;27;20059;-45
2021/03/05 04:46:00;;;;;;;2.28;0.98;;;9.90;74.70;;;;;;5125383;27;20051;-41
2021/03/05 04:48:26;;;;;;;1.35;0.80;;;9.90;74.70;;;;;;5123998;27;20046;-44
2021/03/05 04:50:51;;;;;;;1.38;0.93;;;9.90;74.70;;;;;;5124044;27;20467;-44
2021/03/05 04:53:17;;;;;;;1.92;1.00;;;9.90;74.70;;;;;;5122125;27;20040;-43
2021/03/05 04:55:43;;;;;;;1.15;0.90;;;9.90;74.70;;;;;;5124576;27;20070;-41
2021/03/05 04:58:09;;;;;;;0.88;0.68;;;9.90;74.70;;;;;;5123188;27;20039;-42
2021/03/05 05:00:37;;;;;;;1.98;0.93;;;9.90;74.70;;;;;;5124479;27;20099;-43
2021/03/05 05:03:03;;;;;;;1.23;0.90;;;9.90;74.80;;;;;;5122769;27;20130;-41
2021/03/05 05:05:29;;;;;;;1.10;0.85;;;9.90;74.70;;;;;;5123173;27;20633;-41
2021/03/05 05:07:56;;;;;;;1.08;0.70;;;9.90;74.70;;;;;;5122297;27;20138;-43
2021/03/05 05:10:23;;;;;;;1.42;0.70;;;9.90;74.70;;;;;;5122327;27;20076;-42
2021/03/05 05:12:49;;;;;;;0.65;0.65;;;9.90;74.70;;;;;;5123186;27;20062;-43
2021/03/05 05:15:15;;;;;;;1.42;0.82;;;9.90;74.70;;;;;;5123749;27;20484;-40
2021/03/05 05:17:41;;;;;;;0.95;0.70;;;9.90;74.70;;;;;;5125076;27;20042;-43
2021/03/05 05:20:08;;;;;;;2.33;1.25;;;9.90;74.70;;;;;;5124400;28;20047;-43
2021/03/05 05:22:35;;;;;;;0.77;0.73;;;9.90;74.80;;;;;;5124337;28;20073;-42
2021/03/05 05:25:02;;;;;;;1.35;0.80;;;9.90;74.70;;;;;;5120917;28;20043;-41
2021/03/05 05:27:28;;;;;;;1.02;0.85;;;9.90;74.70;;;;;;5122525;28;20071;-43
2021/03/05 05:29:53;;;;;;;2.35;0.70;;;9.90;74.80;;;;;;5124039;28;20093;-42
2021/03/05 05:32:19;;;;;;;1.00;0.75;;;9.90;74.80;;;;;;5122327;28;20129;-42
2021/03/05 05:34:45;;;;;;;1.15;0.70;;;9.90;74.80;;;;;;5123625;28;20046;-42
2021/03/05 05:37:11;;;;;;;1.15;0.80;;;9.90;74.70;;;;;;5123172;28;20055;-43
2021/03/05 05:39:36;;;;;;;1.42;0.90;;;9.90;74.80;;;;;;5121141;28;20043;-43
2021/03/05 05:42:05;;;;;;;1.38;0.80;;;9.90;74.80;;;;;;5123485;28;20046;-40
2021/03/05 05:44:30;;;;;;;2.05;0.95;;;9.90;74.70;;;;;;5123636;28;20043;-43
2021/03/05 05:46:58;;;;;;;0.90;0.73;;;9.90;74.80;;;;;;5122211;28;20051;-41
2021/03/05 05:49:26;;;;;;;1.05;0.75;;;9.90;74.70;;;;;;5124527;27;20063;-43
2021/03/05 05:51:55;;;;;;;1.75;0.98;;;9.90;74.70;;;;;;5122227;27;20505;-42
2021/03/05 05:54:23;;;;;;;1.60;0.82;;;9.90;74.80;;;;;;5123015;28;20063;-46
2021/03/05 05:56:51;;;;;;;2.40;0.73;;;9.90;74.70;;;;;;5122906;28;20090;-41
2021/03/05 05:59:17;;;;;;;0.55;0.55;;;9.90;74.70;;;;;;5122794;27;20048;-42
2021/03/05 06:01:43;;;;;;;1.42;0.63;;;9.90;74.80;;;;;;5122550;28;20459;-40
2021/03/05 06:04:10;;;;;;;0.82;0.80;;;9.90;74.70;;;;;;5122522;28;20074;-45
2021/03/05 06:06:37;;;;;;;1.90;0.80;;;9.90;74.80;;;;;;5120985;27;20051;-42
2021/03/05 06:09:04;;;;;;;1.00;0.90;;;9.90;74.70;;;;;;5123339;27;20039;-43
2021/03/05 06:11:31;;;;;;;0.68;0.68;;;9.90;74.70;;;;;;5122546;27;20046;-41
2021/03/05 06:14:06;;;;;;;1.58;0.73;;;9.80;74.70;;;;;;5123841;28;20043;-40
2021/03/05 06:16:34;;;;;;;0.93;0.90;;;9.90;74.70;;;;;;5120262;28;20048;-42
2021/03/05 06:19:00;;;;;;;0.90;0.70;;;9.80;74.70;;;;;;5131601;27;20380;-41
2021/03/05 06:21:40;;;;;;;0.93;0.68;;;9.90;74.80;;;;;;5135933;27;20047;-43
2021/03/05 06:24:09;;;;;;;1.38;0.80;;;9.90;74.70;;;;;;5135788;27;20043;-46
2021/03/05 06:26:52;;;;;;;3.20;1.02;;;9.80;74.70;;;;;;5136983;27;20039;-44
2021/03/05 06:29:20;;;;;;;0.55;0.52;;;9.80;74.70;;;;;;5137159;27;20640;-47
2021/03/05 06:32:02;;;;;;;0.77;0.77;;;9.80;74.70;;;;;;5137184;27;20085;-43
2021/03/05 06:34:29;;;;;;;0.98;0.73;;;9.80;74.70;;;;;;5135425;27;20047;-42
2021/03/05 06:37:06;;;;;;;1.30;0.70;;;9.80;74.70;;;;;;5116477;28;20129;-42
2021/03/05 06:39:35;;;;;;;1.55;0.75;;;9.80;74.70;;;;;;5116668;28;20460;-42
2021/03/05 06:42:12;;;;;;;1.00;0.80;;;9.80;74.70;;;;;;5116163;28;20047;-44
2021/03/05 06:44:46;;;;;;;1.05;0.70;;;9.80;74.70;;;;;;5116128;28;20055;-45
2021/03/05 06:47:14;;;;;;;1.23;0.67;;;9.80;74.70;;;;;;5119535;27;20062;-42
2021/03/05 06:49:42;;;;;;;0.60;0.60;;;9.80;74.70;;;;;;5136673;27;20046;-43
2021/03/05 06:52:09;;;;;;;0.50;0.50;;;9.80;74.70;;;;;;5136586;27;20096;-44
2021/03/05 06:54:37;;;;;;;1.10;0.65;;;9.80;74.70;;;;;;5135428;27;20095;-43
2021/03/05 06:57:04;;;;;;;1.17;0.60;;;9.80;74.70;;;;;;5134354;27;20039;-44
2021/03/05 06:59:40;;;;;;;2.38;0.70;;;9.80;74.70;;;;;;5136285;27;20043;-44
2021/03/05 07:02:16;;;;;;;2.15;0.98;;;9.80;74.70;;;;;;5129882;27;20039;-44
2021/03/05 07:04:42;;;;;;;0.85;0.70;;;9.80;74.70;;;;;;5127952;27;20387;-43
2021/03/05 07:07:09;;;;;;;0.68;0.60;;;9.80;74.70;;;;;;5123971;27;20046;-41
2021/03/05 07:09:37;;;;;;;1.10;0.68;;;9.80;74.70;;;;;;5126615;27;20090;-43
2021/03/05 07:12:17;;;;;;;1.58;0.63;;;9.80;74.70;;;;;;5124830;27;20032;-42
2021/03/05 07:14:45;;;;;;;1.77;0.60;;;9.80;74.70;;;;;;5124456;27;20039;-43
2021/03/05 07:17:12;;;;;;;1.25;0.63;;;9.80;74.80;;;;;;5125324;27;20043;-40
2021/03/05 07:19:39;;;;;;;1.65;0.68;;;9.80;74.70;;;;;;5126332;27;20046;-43
2021/03/05 07:22:08;;;;;;;0.65;0.65;;;9.80;74.70;;;;;;5125111;27;20504;-43
2021/03/05 07:24:38;;;;;;;1.55;0.73;;;9.80;74.70;;;;;;5124435;27;20054;-43
2021/03/05 07:27:08;;;;;;;1.35;0.80;;;9.80;74.70;;;;;;5124714;27;20043;-43
2021/03/05 07:29:45;;;;;;;2.08;0.60;;;9.80;74.70;;;;;;5123399;27;20376;-41
2021/03/05 07:32:20;;;;;;;2.08;0.68;;;9.80;74.80;;;;;;5124265;27;20043;-41
2021/03/05 07:34:57;;;;;;;0.40;0.40;;;9.80;74.70;;;;;;5125135;27;20088;-41
2021/03/05 07:37:31;;;;;;;0.50;0.50;;;9.80;74.80;;;;;;5130163;27;20065;-41
2021/03/05 07:40:06;;;;;;;3.08;0.70;;;9.80;74.80;;;;;;5135902;27;20234;-41
2021/03/05 07:42:32;;;;;;;0.60;0.60;;;9.80;74.80;;;;;;5119985;27;20043;-44
2021/03/05 07:45:00;;;;;;;0.60;0.60;;;9.70;74.70;;;;;;5133068;27;20062;-42
2021/03/05 07:47:30;;;;;;;0.80;0.57;;;9.80;74.80;;;;;;5135642;27;20566;-41
2021/03/05 07:49:59;;;;;;;0.75;0.70;;;9.80;74.80;;;;;;5135436;27;20529;-42
2021/03/05 07:52:25;;;;;;;0.95;0.70;;;9.80;74.80;;;;;;5131794;27;20096;-41
2021/03/05 07:54:51;;;;;;;0.93;0.60;;;9.80;74.80;;;;;;5127502;27;20457;-47
2021/03/05 07:57:20;;;;;;;0.73;0.60;;;9.70;74.70;;;;;;5123362;27;20047;-46
2021/03/05 07:59:50;;;;;;;0.80;0.70;;;9.70;74.70;;;;;;5124814;27;20040;-46
2021/03/05 08:02:16;;;;;;;0.73;0.60;;;9.70;75.40;;;;;;5123484;27;20071;-44
2021/03/05 08:07:15;;;;;;;0.80;0.65;;;9.80;74.80;;;;;;5123036;27;20047;-44
2021/03/05 08:09:41;;;;;;;0.93;0.70;;;9.80;74.80;;;;;;5125212;27;20070;-42
2021/03/05 08:12:29;;;;;;;0.75;0.60;;;9.70;74.80;;;;;;5124846;27;20031;-43
2021/03/05 08:15:07;;;;;;;0.73;0.65;;;9.80;74.80;;;;;;5125061;27;20039;-41
2021/03/05 08:17:38;;;;;;;0.93;0.60;;;9.80;74.80;;;;;;5125510;27;20133;-40
2021/03/05 08:20:06;;;;;;;0.50;0.50;;;9.80;74.80;;;;;;5124387;27;20567;-40
2021/03/05 08:22:33;;;;;;;0.50;0.50;;;9.70;74.80;;;;;;5124889;27;20066;-41
2021/03/05 08:25:20;;;;;;;2.00;1.10;;;9.80;74.90;;;;;;5123582;27;20035;-42
2021/03/05 08:27:47;;;;;;;2.72;0.77;;;9.80;74.80;;;;;;5124399;27;20544;-43
2021/03/05 08:30:14;;;;;;;1.20;0.70;;;9.80;74.90;;;;;;5122686;27;20480;-43
2021/03/05 08:32:51;;;;;;;0.95;0.73;;;9.70;74.80;;;;;;5124616;27;20444;-47
2021/03/05 08:35:29;;;;;;;0.50;0.47;;;9.80;74.90;;;;;;5123309;27;20043;-45
2021/03/05 08:38:15;;;;;;;2.28;0.65;;;9.80;74.90;;;;;;5123621;27;20051;-45
2021/03/05 08:40:44;;;;;;;0.63;0.63;;;9.70;74.80;;;;;;5124002;27;20422;-43
2021/03/05 08:43:10;;;;;;;1.02;0.52;;;9.80;74.90;;;;;;5124452;27;20073;-47
2021/03/05 08:45:40;;;;;;;1.35;0.73;;;9.80;74.90;;;;;;5122786;27;20044;-41
2021/03/05 08:48:06;;;;;;;1.65;0.68;;;9.80;74.90;;;;;;5123183;27;20043;-43
2021/03/05 08:50:34;;;;;;;0.77;0.50;;;9.80;74.90;;;;;;5124803;27;20049;-42
2021/03/05 08:53:13;;;;;;;2.20;0.65;;;9.80;74.90;;;;;;5122936;27;20046;-41
2021/03/05 08:55:41;;;;;;;1.08;0.50;;;9.80;74.90;;;;;;5123048;27;20058;-40
2021/03/05 08:58:07;;;;;;;1.17;0.60;;;9.80;75.00;;;;;;5124688;27;20372;-40
2021/03/05 09:00:35;;;;;;;0.50;0.50;;;9.80;74.90;;;;;;5122506;27;20039;-42
2021/03/05 09:03:08;;;;;;;0.73;0.50;;;9.80;74.90;;;;;;5123461;27;20483;-42
2021/03/05 09:05:50;;;;;;;0.77;0.50;;;9.80;75.00;;;;;;5124318;27;20407;-43
2021/03/05 09:08:20;;;;;;;0.73;0.57;;;9.80;74.90;;;;;;5119957;27;20046;-42
2021/03/05 09:10:57;;;;;;;0.60;0.50;;;9.80;74.90;;;;;;5122893;27;20047;-43
2021/03/05 09:13:34;;;;;;;0.30;0.30;;;9.80;74.90;;;;;;5120720;27;20456;-41
2021/03/05 09:16:01;;;;;;;0.95;0.70;;;9.80;74.90;;;;;;5122298;28;20039;-43
2021/03/05 09:18:28;;;;;;;0.50;0.50;;;9.80;74.90;;;;;;5124932;27;20483;-41
2021/03/05 09:21:06;;;;;;;0.57;0.50;;;9.80;74.90;;;;;;5124470;28;20368;-47
2021/03/05 09:23:40;;;;;;;1.20;0.45;;;9.80;74.90;;;;;;5124096;28;20043;-42
2021/03/05 09:26:16;;;;;;;1.60;0.60;;;9.80;74.90;;;;;;5123444;28;20039;-43
2021/03/05 09:28:43;;;;;;;0.77;0.57;;;9.90;75.00;;;;;;5123023;28;20051;-43
2021/03/05 09:31:10;;;;;;;0.65;0.40;;;9.80;75.50;;;;;;5122244;27;20036;-43
2021/03/05 09:33:38;;;;;;;0.98;0.50;;;9.90;74.90;;;;;;5118338;28;20043;-38
2021/03/05 09:36:07;;;;;;;0.40;0.30;;;9.90;74.90;;;;;;5113408;28;20050;-43
2021/03/05 09:38:34;;;;;;;0.63;0.40;;;9.90;74.90;;;;;;5113109;28;20065;-43
2021/03/05 09:41:23;;;;;;;0.40;0.38;;;9.90;74.90;;;;;;5113564;28;20051;-40
2021/03/05 09:44:10;;;;;;;1.20;0.70;;;9.90;74.90;;;;;;5113255;28;20085;-42
2021/03/05 09:46:38;;;;;;;1.23;0.50;;;9.90;74.80;;;;;;5113220;28;20071;-43
2021/03/05 09:49:25;;;;;;;0.95;0.60;;;9.90;74.80;;;;;;5113055;28;20180;-42
2021/03/05 09:51:52;;;;;;;0.60;0.60;;;9.90;74.80;;;;;;5113191;28;20047;-43
2021/03/05 09:54:19;;;;;;;1.13;0.50;;;9.90;74.80;;;;;;5115702;28;20047;-44
2021/03/05 09:56:46;;;;;;;0.40;0.40;;;9.90;74.80;;;;;;5117391;28;20043;-42
2021/03/05 09:59:13;;;;;;;0.40;0.40;;;10.00;74.80;;;;;;5128014;27;20048;-43
2021/03/05 10:01:42;;;;;;;0.50;0.50;;;10.00;74.80;;;;;;5137700;27;20050;-40
2021/03/05 10:04:10;;;;;;;0.77;0.50;;;10.00;74.80;;;;;;5137329;27;20513;-39
2021/03/05 10:06:36;;;;;;;0.43;0.40;;;10.00;75.40;;;;;;5137304;27;20395;-42
2021/03/05 10:09:06;;;;;;;0.90;0.30;;;10.00;74.70;;;;;;5137478;27;20043;-42
2021/03/05 10:11:38;;;;;;;0.60;0.60;;;10.00;74.70;;;;;;5137422;27;20173;-43
2021/03/05 10:14:05;;;;;;;0.80;0.43;;;10.00;74.70;;;;;;5131370;27;20048;-44
2021/03/05 10:16:38;;;;;;;0.52;0.52;;;10.10;74.70;;;;;;5126771;27;20107;-42
2021/03/05 10:19:11;;;;;;;0.73;0.57;;;10.10;74.70;;;;;;5127158;27;20039;-42
2021/03/05 10:21:47;;;;;;;0.47;0.43;;;10.10;74.70;;;;;;5130494;27;20040;-39
2021/03/05 10:24:14;;;;;;;1.95;0.50;;;10.10;74.70;;;;;;5128526;27;20035;-44
2021/03/05 10:27:10;;;;;;;0.45;0.45;;;10.10;74.70;;;;;;5125443;27;20475;-41
2021/03/05 10:29:26;;;;;;;0.50;0.50;;;10.10;74.60;;;;;;5127729;27;20057;-44
2021/03/05 10:31:55;;;;;;;1.27;0.75;;;10.10;74.60;;;;;;5125349;27;20130;-43
2021/03/05 10:34:29;;;;;;;0.65;0.30;;;10.10;74.60;;;;;;5116475;27;20051;-45
2021/03/05 10:37:00;;;;;;;1.35;0.50;;;10.10;74.60;;;;;;5134848;27;20080;-42
2021/03/05 10:39:28;;;;;;;0.68;0.50;;;10.10;74.60;;;;;;5116039;27;20051;-44
2021/03/05 10:41:57;;;;;;;0.47;0.47;;;10.10;74.50;;;;;;5116629;28;20054;-43
2021/03/05 10:44:27;;;;;;;0.65;0.50;;;10.10;74.50;;;;;;5115910;28;20056;-42
2021/03/05 10:47:01;;;;;;;0.85;0.50;;;10.20;74.50;;;;;;5115493;28;20122;-41
2021/03/05 10:49:28;;;;;;;0.88;0.60;;;10.20;74.50;;;;;;5116258;28;20044;-43
2021/03/05 10:51:54;;;;;;;0.60;0.60;;;10.10;74.50;;;;;;5115844;28;20040;-43
2021/03/05 10:54:20;;;;;;;1.08;0.55;;;10.10;74.40;;;;;;5115155;28;20047;-41
2021/03/05 10:56:50;;;;;;;0.40;0.40;;;10.20;74.40;;;;;;5115142;27;20060;-40
2021/03/05 10:59:20;;;;;;;0.40;0.40;;;10.20;74.40;;;;;;5127422;27;20051;-42
2021/03/05 11:01:48;;;;;;;0.52;0.45;;;10.20;74.40;;;;;;5135546;27;20057;-42
2021/03/05 11:04:15;;;;;;;0.50;0.50;;;10.20;74.40;;;;;;5136099;27;20134;-42
2021/03/05 11:06:46;;;;;;;1.25;1.15;;;10.20;74.40;;;;;;5136054;27;20035;-43
2021/03/05 11:09:13;;;;;;;0.50;0.45;;;10.20;74.30;;;;;;5115777;27;20135;-42
2021/03/05 11:11:38;;;;;;;0.60;0.60;;;10.20;74.30;;;;;;5114409;28;20045;-42
2021/03/05 11:14:04;;;;;;;0.40;0.40;;;10.20;74.30;;;;;;5121454;27;20487;-42
2021/03/05 11:16:31;;;;;;;0.52;0.47;;;10.20;74.30;;;;;;5132720;27;20055;-43
2021/03/05 11:18:57;;;;;;;0.43;0.40;;;10.20;74.30;;;;;;5134457;27;20058;-42
2021/03/05 11:21:23;;;;;;;0.82;0.63;;;10.20;74.30;;;;;;5134555;27;20039;-43
2021/03/05 11:23:49;;;;;;;0.52;0.52;;;10.20;74.20;;;;;;5126229;27;20047;-44
2021/03/05 11:26:16;;;;;;;0.57;0.50;;;10.20;74.20;;;;;;5126079;27;20130;-41
2021/03/05 11:28:41;;;;;;;0.55;0.40;;;10.20;74.20;;;;;;5124937;27;20051;-41
2021/03/05 11:31:10;;;;;;;0.50;0.43;;;10.20;74.20;;;;;;5118061;27;20491;-43
2021/03/05 11:33:36;;;;;;;0.40;0.40;;;10.20;74.20;;;;;;5126411;27;20094;-44
2021/03/05 11:36:02;;;;;;;0.40;0.40;;;10.30;74.20;;;;;;5130425;27;20095;-46
2021/03/05 11:38:28;;;;;;;0.57;0.40;;;10.30;74.20;;;;;;5135333;27;20059;-41
2021/03/05 11:40:54;;;;;;;0.85;0.68;;;10.30;74.20;;;;;;5123148;27;20510;-42
2021/03/05 11:43:20;;;;;;;0.93;0.70;;;10.30;74.20;;;;;;5123403;27;20371;-41
2021/03/05 11:45:47;;;;;;;1.60;0.60;;;10.30;74.20;;;;;;5113554;28;20047;-43
2021/03/05 11:48:13;;;;;;;0.90;0.30;;;10.30;74.10;;;;;;5115187;27;20047;-41
2021/03/05 11:50:39;;;;;;;0.30;0.30;;;10.30;74.10;;;;;;5102634;28;20048;-43
2021/03/05 11:53:05;;;;;;;0.60;0.32;;;10.30;74.20;;;;;;5094195;28;20043;-46
2021/03/05 11:55:32;;;;;;;0.90;0.40;;;10.30;74.10;;;;;;5094621;28;20101;-45
2021/03/05 11:58:02;;;;;;;1.23;0.50;;;10.30;74.10;;;;;;5094210;28;20052;-46
2021/03/05 12:00:28;;;;;;;1.58;0.40;;;10.30;74.10;;;;;;5101027;28;20051;-44
2021/03/05 12:02:54;;;;;;;0.47;0.30;;;10.30;74.10;;;;;;5110489;28;20091;-41
2021/03/05 12:05:21;;;;;;;1.83;0.50;;;10.30;74.00;;;;;;5114668;28;20479;-44
2021/03/05 12:07:47;;;;;;;0.63;0.40;;;10.30;74.00;;;;;;5114441;28;20051;-46
2021/03/05 12:10:13;;;;;;;1.08;0.47;;;10.30;74.00;;;;;;5114675;28;20043;-44
2021/03/05 12:12:39;;;;;;;0.63;0.52;;;10.30;74.00;;;;;;5097758;28;20408;-44
2021/03/05 12:15:05;;;;;;;0.52;0.30;;;10.30;74.00;;;;;;5094306;28;20040;-43
2021/03/05 12:17:32;;;;;;;0.82;0.38;;;10.30;73.90;;;;;;5093310;28;20574;-43
2021/03/05 12:19:58;;;;;;;1.27;0.40;;;10.30;73.90;;;;;;5094048;28;20506;-45
2021/03/05 12:22:25;;;;;;;0.32;0.30;;;10.30;73.90;;;;;;5095048;28;20498;-42
2021/03/05 12:24:59;;;;;;;0.63;0.50;;;10.30;73.90;;;;;;5093668;28;20044;-43
2021/03/05 12:27:45;;;;;;;0.77;0.45;;;10.40;74.60;;;;;;5092964;28;20044;-40
2021/03/05 12:30:31;;;;;;;0.98;0.45;;;10.30;73.90;;;;;;5092950;28;20060;-45
2021/03/05 12:33:16;;;;;;;1.17;0.35;;;10.40;73.90;;;;;;5094267;28;20601;-45
2021/03/05 12:36:02;;;;;;;0.47;0.43;;;10.40;73.90;;;;;;5103725;28;20048;-42
2021/03/05 12:38:48;;;;;;;;;;;10.40;73.90;;;;;;5113344;28;20051;-43
2021/03/05 12:41:24;;;;;;;0.80;0.40;;;10.30;73.90;;;;;;5113953;28;20312;-45
2021/03/05 12:43:51;;;;;;;0.68;0.40;;;10.30;73.90;;;;;;5120572;27;20051;-40
2021/03/05 12:46:17;;;;;;;0.60;0.45;;;10.40;73.90;;;;;;5115405;27;20154;-44
2021/03/05 12:48:42;;;;;;;0.98;0.50;;;10.40;73.90;;;;;;5121316;27;20047;-43
2021/03/05 12:51:08;;;;;;;0.40;0.40;;;10.30;73.80;;;;;;5134502;27;20047;-43
2021/03/05 12:53:34;;;;;;;0.50;0.50;;;10.40;73.90;;;;;;5132965;27;20055;-41
2021/03/05 12:55:59;;;;;;;0.95;0.43;;;10.40;73.90;;;;;;5132502;27;20138;-43
2021/03/05 12:58:25;;;;;;;1.08;0.98;;;10.40;73.90;;;;;;5134216;27;20486;-42
2021/03/05 13:00:51;;;;;;;1.23;0.65;;;10.40;73.90;;;;;;5134339;27;20166;-45
2021/03/05 13:03:17;;;;;;;0.68;0.50;;;10.40;73.80;;;;;;5134310;27;20047;-43
2021/03/05 13:05:42;;;;;;;0.60;0.50;;;10.40;73.80;;;;;;5132493;27;20138;-44